Time;durP1;ratioP1;P1;durP2;ratioP2;P2;SDS_P1;SDS_P2;PMS_P1;PMS_P2;Temp;Humidity;BMP_temperature;BMP_pressure;BME280_temperature;BME280_humidity;BME280_pressure;Samples;Min_cycle;Max_cycle;Signal;HPM_P1;HPM_P2
2023/06/29 00:00:19;;;;;;;27.23;18.30;;;;;;;21.51;67.50;101532.97;5071027;28;20163;-72
2023/06/29 00:02:44;;;;;;;21.98;18.40;;;;;;;21.53;67.21;101527.84;5062780;28;20020;-73
2023/06/29 00:05:10;;;;;;;24.85;18.58;;;;;;;21.54;67.25;101529.53;5069510;28;20472;-72
2023/06/29 00:07:36;;;;;;;25.60;18.05;;;;;;;21.52;67.27;101529.81;5063796;28;20031;-72
2023/06/29 00:10:01;;;;;;;23.55;18.02;;;;;;;21.53;67.50;101519.34;5065603;28;20096;-72
2023/06/29 00:12:27;;;;;;;23.67;17.08;;;;;;;21.52;67.16;101515.69;5062930;28;20529;-72
2023/06/29 00:14:53;;;;;;;26.98;18.33;;;;;;;21.52;67.15;101506.38;5068072;28;20446;-72
2023/06/29 00:17:19;;;;;;;24.08;18.13;;;;;;;21.52;67.23;101520.50;5060854;28;20025;-72
2023/06/29 00:19:47;;;;;;;24.70;17.45;;;;;;;21.52;67.47;101509.22;5063023;28;20060;-72
2023/06/29 00:22:13;;;;;;;25.23;18.10;;;;;;;21.48;67.50;101499.69;5064858;28;20385;-72
2023/06/29 00:24:43;;;;;;;25.65;18.48;;;;;;;21.48;67.44;101496.88;5063443;28;20021;-72
2023/06/29 00:27:12;;;;;;;22.25;17.73;;;;;;;21.50;68.11;101497.41;5066845;28;20349;-72
2023/06/29 00:29:42;;;;;;;22.80;18.80;;;;;;;21.47;67.51;101509.31;5061190;28;20032;-72
2023/06/29 00:32:08;;;;;;;23.55;18.20;;;;;;;21.47;67.66;101500.84;5061783;28;20135;-72
2023/06/29 00:34:34;;;;;;;24.05;18.25;;;;;;;21.46;67.87;101496.34;5063453;28;20037;-72
2023/06/29 00:36:59;;;;;;;24.75;18.13;;;;;;;21.45;67.81;101498.31;5066879;28;20047;-73
2023/06/29 00:39:24;;;;;;;24.90;17.88;;;;;;;21.47;67.63;101498.03;5070112;28;20090;-73
2023/06/29 00:41:53;;;;;;;24.42;18.40;;;;;;;21.42;68.56;101486.81;5070134;28;20036;-72
2023/06/29 00:44:19;;;;;;;22.60;18.20;;;;;;;21.46;68.55;101499.19;5067914;28;20093;-73
2023/06/29 00:46:45;;;;;;;27.83;19.42;;;;;;;21.42;68.01;101492.44;5066543;28;20770;-73
2023/06/29 00:49:11;;;;;;;26.77;19.65;;;;;;;21.44;67.99;101498.63;5067933;28;20495;-73
2023/06/29 00:51:36;;;;;;;28.08;19.48;;;;;;;21.43;67.79;101491.31;5060369;28;20040;-73
2023/06/29 00:54:01;;;;;;;25.63;18.60;;;;;;;21.39;68.14;101485.47;5068069;28;20371;-73
2023/06/29 00:56:30;;;;;;;21.77;18.48;;;;;;;21.43;68.21;101499.78;5072025;28;20043;-73
2023/06/29 00:58:55;;;;;;;23.83;18.02;;;;;;;21.42;68.40;101483.97;5069339;28;20456;-73
2023/06/29 01:01:21;;;;;;;27.20;18.33;;;;;;;21.43;68.59;101478.03;5066428;28;20036;-73
2023/06/29 01:03:46;;;;;;;25.17;18.88;;;;;;;21.41;68.54;101477.50;5094639;28;20024;-73
2023/06/29 01:06:18;;;;;;;27.58;19.05;;;;;;;21.36;68.43;101479.59;5060771;28;20060;-73
2023/06/29 01:08:48;;;;;;;27.00;19.42;;;;;;;21.41;68.28;101482.31;5086347;28;20039;-73
2023/06/29 01:11:14;;;;;;;25.65;19.13;;;;;;;21.41;68.18;101476.66;5094614;28;20066;-73
2023/06/29 01:13:42;;;;;;;25.30;19.35;;;;;;;21.39;68.28;101481.81;5054799;28;20433;-73
2023/06/29 01:16:08;;;;;;;27.70;19.90;;;;;;;21.37;68.48;101484.09;5054627;28;20063;-73
2023/06/29 01:18:34;;;;;;;24.92;19.77;;;;;;;21.34;68.47;101479.91;5054775;28;20432;-73
2023/06/29 01:21:01;;;;;;;26.48;19.92;;;;;;;21.37;68.32;101478.44;5086974;28;20036;-73
2023/06/29 01:23:36;;;;;;;25.73;19.15;;;;;;;21.35;68.84;101475.09;5093862;28;20089;-73
2023/06/29 01:26:02;;;;;;;26.33;19.08;;;;;;;21.36;68.53;101473.94;5093648;28;20028;-73
2023/06/29 01:28:31;;;;;;;25.45;19.80;;;;;;;21.36;68.51;101462.66;5093861;28;20463;-73
2023/06/29 01:30:57;;;;;;;24.85;20.08;;;;;;;21.37;68.48;101461.50;5093470;28;20036;-73
2023/06/29 01:33:24;;;;;;;32.55;20.90;;;;;;;21.36;68.18;101466.31;5060993;28;20025;-73
2023/06/29 01:35:56;;;;;;;27.23;19.70;;;;;;;21.31;68.46;101472.84;5060179;28;20072;-73
2023/06/29 01:38:30;;;;;;;;;;;;;;;21.48;67.17;101460.16;5074284;28;20024;-73
2023/06/29 01:40:57;;;;;;;31.83;20.17;;;;;;;21.34;67.80;101462.97;5073242;28;19913;-73
2023/06/29 01:43:24;;;;;;;25.27;19.48;;;;;;;21.31;67.65;101461.56;5073277;28;20046;-74
2023/06/29 01:45:50;;;;;;;26.20;20.83;;;;;;;21.29;67.55;101460.19;5073242;28;20111;-74
2023/06/29 01:48:17;;;;;;;24.80;20.05;;;;;;;21.29;67.64;101454.53;5071136;28;20040;-73
2023/06/29 01:50:43;;;;;;;24.65;19.95;;;;;;;21.27;67.56;101454.03;5065438;28;20036;-73
2023/06/29 01:53:08;;;;;;;23.50;19.55;;;;;;;21.31;67.29;101457.91;5066956;28;20028;-73
2023/06/29 01:55:33;;;;;;;27.00;19.25;;;;;;;21.32;67.58;101445.44;5063507;28;20036;-73
2023/06/29 01:57:59;;;;;;;25.05;19.10;;;;;;;21.28;67.19;101447.22;5072504;28;20058;-73
2023/06/29 02:00:24;;;;;;;23.33;18.38;;;;;;;21.26;67.93;101453.19;5073669;28;20106;-74
2023/06/29 02:02:49;;;;;;;26.00;19.20;;;;;;;21.27;67.45;101448.38;5073521;28;20024;-73
2023/06/29 02:05:15;;;;;;;22.77;19.02;;;;;;;21.27;67.48;101448.38;5089776;28;20024;-73
2023/06/29 02:07:40;;;;;;;25.92;20.10;;;;;;;21.24;67.44;101446.16;5055929;28;20108;-73
2023/06/29 02:10:06;;;;;;;24.63;19.40;;;;;;;21.22;67.55;101442.81;5059006;28;20033;-73
2023/06/29 02:12:33;;;;;;;27.17;19.33;;;;;;;21.24;67.60;101437.69;5070007;28;20513;-73
2023/06/29 02:14:58;;;;;;;24.75;19.33;;;;;;;21.26;67.78;101439.06;5071180;28;20044;-73
2023/06/29 02:17:23;;;;;;;26.02;19.73;;;;;;;21.24;67.53;101435.72;5072916;28;20029;-74
2023/06/29 02:19:48;;;;;;;23.02;19.27;;;;;;;21.23;67.83;101436.88;5073426;28;20025;-73
2023/06/29 02:22:14;;;;;;;27.17;20.65;;;;;;;21.23;67.65;101436.88;5092293;28;20418;-73
2023/06/29 02:24:39;;;;;;;26.20;19.52;;;;;;;21.22;67.61;101435.19;5060377;28;20556;-73
2023/06/29 02:27:04;;;;;;;29.38;20.63;;;;;;;21.21;67.48;101433.50;5061875;28;20154;-71
2023/06/29 02:29:30;;;;;;;28.42;20.45;;;;;;;21.19;67.40;101430.16;5063081;28;20037;-72
2023/06/29 02:31:55;;;;;;;25.92;20.33;;;;;;;21.21;67.35;101433.50;5057432;28;20033;-72
2023/06/29 02:34:20;;;;;;;27.58;21.55;;;;;;;21.23;67.25;101427.56;5068180;28;20068;-72
2023/06/29 02:36:46;;;;;;;30.38;21.70;;;;;;;21.20;67.24;101426.19;5067634;28;20047;-73
2023/06/29 02:39:11;;;;;;;27.25;20.27;;;;;;;21.22;67.22;101431.50;5052496;28;20028;-73
2023/06/29 02:41:36;;;;;;;27.83;20.33;;;;;;;21.21;67.43;101421.38;5058470;28;20078;-73
2023/06/29 02:44:02;;;;;;;26.40;20.83;;;;;;;21.22;67.39;101426.72;5070557;28;20060;-72
2023/06/29 02:46:28;;;;;;;27.38;20.92;;;;;;;21.19;67.40;101418.03;5056140;28;20137;-73
2023/06/29 02:48:53;;;;;;;26.30;21.30;;;;;;;21.17;67.64;101421.16;5052463;28;20044;-73
2023/06/29 02:51:18;;;;;;;29.58;20.90;;;;;;;21.19;67.17;101412.41;5052212;28;20048;-72
2023/06/29 02:53:43;;;;;;;28.95;22.02;;;;;;;21.18;67.54;101422.00;5060533;28;20469;-72
2023/06/29 02:56:09;;;;;;;27.50;21.88;;;;;;;21.14;67.53;101410.50;5064604;28;20128;-72
2023/06/29 02:58:34;;;;;;;30.20;23.02;;;;;;;21.12;67.61;101411.97;5053082;28;20640;-72
2023/06/29 03:00:59;;;;;;;30.20;22.50;;;;;;;21.13;67.48;101414.47;5079736;28;20058;-72
2023/06/29 03:03:25;;;;;;;28.70;22.48;;;;;;;21.06;67.92;101414.03;5063080;28;20024;-72
2023/06/29 03:05:50;;;;;;;28.40;22.25;;;;;;;21.06;67.87;101419.66;5057062;28;20028;-73
2023/06/29 03:08:15;;;;;;;32.67;22.33;;;;;;;21.09;67.87;101413.41;5061368;28;20024;-72
2023/06/29 03:10:41;;;;;;;30.08;23.30;;;;;;;21.05;68.29;101412.34;5058437;28;20115;-72
2023/06/29 03:13:06;;;;;;;29.73;22.80;;;;;;;21.07;68.07;101398.78;5050898;28;20048;-72
2023/06/29 03:15:31;;;;;;;28.35;22.00;;;;;;;21.09;67.96;101404.94;5065134;28;20457;-73
2023/06/29 03:17:56;;;;;;;33.45;24.23;;;;;;;21.07;68.13;101408.09;5071950;28;20480;-72
2023/06/29 03:20:22;;;;;;;31.30;22.58;;;;;;;21.09;67.98;101404.94;5065382;28;20024;-72
2023/06/29 03:22:47;;;;;;;29.85;22.73;;;;;;;21.07;68.14;101402.44;5071141;28;20027;-73
2023/06/29 03:25:12;;;;;;;34.33;24.33;;;;;;;21.09;68.08;101404.94;5069712;28;20048;-72
2023/06/29 03:27:38;;;;;;;33.65;23.77;;;;;;;21.06;68.24;101397.97;5067766;28;20029;-72
2023/06/29 03:30:04;;;;;;;31.92;24.20;;;;;;;21.04;68.46;101400.25;5074712;28;20043;-72
2023/06/29 03:32:29;;;;;;;32.55;24.70;;;;;;;21.07;68.16;101396.81;5053584;28;20029;-72
2023/06/29 03:34:55;;;;;;;29.83;23.73;;;;;;;21.08;68.43;101394.81;5057284;28;20119;-72
2023/06/29 03:37:20;;;;;;;34.47;25.20;;;;;;;21.04;68.39;101388.94;5078939;28;20025;-72
2023/06/29 03:39:45;;;;;;;32.05;24.30;;;;;;;21.02;68.58;101396.03;5070831;28;20016;-73
2023/06/29 03:42:11;;;;;;;32.20;24.00;;;;;;;21.03;68.49;101398.56;5071112;28;20472;-72
2023/06/29 03:44:39;;;;;;;34.10;24.75;;;;;;;21.05;68.61;101401.06;5071641;28;20023;-72
2023/06/29 03:47:04;;;;;;;32.72;24.77;;;;;;;21.01;68.72;101394.38;5070614;28;20060;-72
2023/06/29 03:49:29;;;;;;;35.00;24.50;;;;;;;21.04;68.73;101402.22;5077128;28;20107;-72
2023/06/29 03:51:55;;;;;;;31.48;24.45;;;;;;;21.03;68.79;101392.94;5086292;28;20097;-72
2023/06/29 03:54:20;;;;;;;32.90;24.40;;;;;;;21.05;68.72;101401.91;5068959;28;20056;-72
2023/06/29 03:56:45;;;;;;;37.63;25.25;;;;;;;21.06;68.62;101395.13;5078775;28;20031;-72
2023/06/29 03:59:11;;;;;;;33.05;24.98;;;;;;;21.04;68.73;101391.78;5091129;28;20518;-72
2023/06/29 04:01:36;;;;;;;34.50;25.17;;;;;;;21.06;68.68;101385.81;5090505;28;20062;-72
2023/06/29 04:04:01;;;;;;;35.65;25.58;;;;;;;21.05;68.70;101378.50;5079242;28;20120;-72
2023/06/29 04:06:27;;;;;;;34.25;24.40;;;;;;;21.07;68.28;101377.03;5054670;28;20063;-72
2023/06/29 04:08:52;;;;;;;32.03;23.95;;;;;;;21.07;68.57;101381.84;5050648;28;20469;-72
2023/06/29 04:11:17;;;;;;;34.55;24.90;;;;;;;21.10;68.63;101386.84;5052749;28;20068;-72
2023/06/29 04:13:42;;;;;;;32.47;24.20;;;;;;;21.08;68.81;101378.72;5050254;28;20045;-72
2023/06/29 04:16:08;;;;;;;31.60;24.13;;;;;;;21.08;68.73;101372.22;5050445;28;20035;-72
2023/06/29 04:18:34;;;;;;;33.05;25.75;;;;;;;21.05;68.76;101372.84;5073580;28;20382;-73
2023/06/29 04:21:00;;;;;;;34.13;24.70;;;;;;;21.02;69.07;101379.94;5091235;28;20523;-72
2023/06/29 04:23:25;;;;;;;31.92;25.77;;;;;;;21.01;69.17;101371.78;5057565;28;20111;-73
2023/06/29 04:25:50;;;;;;;32.63;23.08;;;;;;;21.02;69.05;101374.28;5050573;28;20025;-72
2023/06/29 04:28:16;;;;;;;34.05;25.67;;;;;;;21.04;69.19;101371.19;5061208;28;20038;-72
2023/06/29 04:30:42;;;;;;;33.45;25.00;;;;;;;21.01;69.34;101372.63;5070340;28;20075;-72
2023/06/29 04:33:11;;;;;;;33.10;25.25;;;;;;;21.02;69.12;101374.28;5069561;28;20028;-72
2023/06/29 04:35:40;;;;;;;35.25;25.67;;;;;;;21.04;69.14;101380.47;5069601;28;20037;-72
2023/06/29 04:38:09;;;;;;;31.60;25.63;;;;;;;20.99;69.65;101371.28;5070963;28;20119;-73
2023/06/29 04:40:34;;;;;;;30.52;24.58;;;;;;;21.02;69.49;101368.66;5053187;28;20476;-72
2023/06/29 04:42:59;;;;;;;29.58;24.92;;;;;;;21.05;69.30;101368.03;5050325;28;20056;-72
2023/06/29 04:45:25;;;;;;;33.72;25.27;;;;;;;21.06;69.29;101374.50;5056871;28;20037;-72
2023/06/29 04:47:50;;;;;;;37.65;25.05;;;;;;;21.08;69.08;101366.59;5050734;28;20068;-72
2023/06/29 04:50:25;;;;;;;36.72;25.05;;;;;;;21.05;69.39;101370.03;5068346;28;20040;-72
2023/06/29 04:52:54;;;;;;;36.13;25.50;;;;;;;21.07;69.16;101377.03;5070873;28;20021;-72
2023/06/29 04:55:19;;;;;;;31.58;24.52;;;;;;;21.06;69.26;101369.72;5070763;28;20410;-73
2023/06/29 04:57:45;;;;;;;33.40;25.25;;;;;;;21.07;69.17;101371.41;5050319;28;20121;-72
2023/06/29 05:00:11;;;;;;;32.97;24.10;;;;;;;21.08;69.22;101367.41;5085862;28;20149;-72
2023/06/29 05:02:38;;;;;;;36.90;25.73;;;;;;;21.06;69.26;101366.03;5065656;28;20041;-72
2023/06/29 05:05:04;;;;;;;34.15;25.50;;;;;;;21.07;69.45;101370.56;5070055;28;20441;-72
2023/06/29 05:07:29;;;;;;;35.25;25.45;;;;;;;21.07;69.61;101370.56;5070517;28;20559;-72
2023/06/29 05:09:55;;;;;;;35.58;25.98;;;;;;;21.05;69.25;101370.84;5053195;28;20142;-72
2023/06/29 05:12:20;;;;;;;34.90;25.98;;;;;;;21.06;69.59;101368.88;5048592;28;20059;-72
2023/06/29 05:14:45;;;;;;;35.35;26.38;;;;;;;21.07;69.57;101376.22;5065031;28;20136;-72
2023/06/29 05:17:14;;;;;;;32.47;25.75;;;;;;;21.07;69.71;101370.56;5065701;28;20034;-72
2023/06/29 05:19:39;;;;;;;32.17;26.23;;;;;;;21.03;69.87;101370.34;5090358;28;20028;-72
2023/06/29 05:22:04;;;;;;;35.90;26.83;;;;;;;21.04;69.98;101360.72;5064308;28;20029;-72
2023/06/29 05:24:30;;;;;;;35.33;25.58;;;;;;;21.05;69.74;101364.38;5059135;28;20822;-72
2023/06/29 05:26:55;;;;;;;34.30;26.35;;;;;;;21.06;69.84;101358.44;5067627;28;20017;-75
2023/06/29 05:29:21;;;;;;;19.00;16.10;;;;;;;21.16;67.83;101360.22;5079322;28;20468;-72
2023/06/29 05:31:46;;;;;;;29.40;21.55;;;;;;;21.13;69.18;101363.66;5054952;28;20115;-72
2023/06/29 05:34:11;;;;;;;33.25;24.17;;;;;;;21.12;68.98;101362.00;5053627;28;20025;-73
2023/06/29 05:36:37;;;;;;;30.20;22.00;;;;;;;21.20;68.15;101361.25;5054136;28;20108;-73
2023/06/29 05:39:03;;;;;;;22.48;17.67;;;;;;;21.28;67.84;101360.53;5053056;28;20468;-74
2023/06/29 05:41:29;;;;;;;30.15;22.25;;;;;;;21.29;68.63;101359.38;5053932;28;20021;-72
2023/06/29 05:43:54;;;;;;;35.08;25.92;;;;;;;21.25;68.80;101363.13;5054665;28;20039;-72
2023/06/29 05:46:19;;;;;;;23.67;20.10;;;;;;;21.32;68.36;101360.75;5052829;28;20401;-73
2023/06/29 05:48:45;;;;;;;31.60;23.25;;;;;;;21.35;67.91;101353.69;5072590;28;20055;-72
2023/06/29 05:51:10;;;;;;;32.28;23.20;;;;;;;21.36;68.08;101352.53;5073552;28;20039;-73
2023/06/29 05:53:35;;;;;;;35.83;25.83;;;;;;;21.31;68.06;101351.44;5072682;28;20024;-72
2023/06/29 05:56:01;;;;;;;32.90;24.05;;;;;;;21.35;67.65;101350.84;5068951;28;20039;-72
2023/06/29 05:58:26;;;;;;;28.23;21.83;;;;;;;21.40;68.08;101354.41;5070198;28;20037;-71
2023/06/29 06:00:51;;;;;;;33.47;25.38;;;;;;;21.38;67.52;101347.38;5061066;28;20037;-70
2023/06/29 06:03:17;;;;;;;31.58;23.10;;;;;;;21.36;67.59;101349.69;5052772;28;20016;-71
2023/06/29 06:05:42;;;;;;;29.50;21.92;;;;;;;21.39;67.66;101355.56;5053387;28;20107;-71
2023/06/29 06:08:08;;;;;;;30.92;24.05;;;;;;;21.39;67.84;101349.06;5052029;28;20029;-70
2023/06/29 06:10:33;;;;;;;31.17;22.63;;;;;;;21.40;67.12;101354.41;5052883;28;20049;-70
2023/06/29 06:12:58;;;;;;;26.88;21.05;;;;;;;21.40;66.37;101351.56;5052012;28;20456;-70
2023/06/29 06:15:24;;;;;;;28.65;21.77;;;;;;;21.42;66.62;101354.06;5047903;28;20691;-71
2023/06/29 06:17:49;;;;;;;26.80;22.38;;;;;;;21.47;65.80;101345.50;5068467;28;20151;-69
2023/06/29 06:20:14;;;;;;;29.38;20.17;;;;;;;21.49;65.73;101343.19;5070522;28;20035;-70
2023/06/29 06:22:40;;;;;;;27.20;21.60;;;;;;;21.48;65.47;101355.66;5050879;28;20025;-70
2023/06/29 06:25:06;;;;;;;28.08;20.15;;;;;;;21.55;66.13;101353.25;5049645;28;20053;-69
2023/06/29 06:27:31;;;;;;;26.33;19.35;;;;;;;21.62;66.18;101348.00;5049813;28;20119;-70
2023/06/29 06:29:57;;;;;;;28.05;20.70;;;;;;;21.58;66.00;101349.78;5061834;28;20260;-69
2023/06/29 06:32:24;;;;;;;28.25;20.75;;;;;;;21.57;64.88;101350.94;5065777;28;20021;-70
2023/06/29 06:34:50;;;;;;;25.27;18.50;;;;;;;21.65;64.92;101346.53;5068721;28;20067;-71
2023/06/29 06:37:16;;;;;;;25.40;19.30;;;;;;;21.68;64.88;101348.72;5058102;28;20069;-72
2023/06/29 06:39:41;;;;;;;23.60;17.42;;;;;;;21.72;64.79;101353.41;5062176;28;20084;-72
2023/06/29 06:42:07;;;;;;;22.73;18.35;;;;;;;21.72;65.09;101344.94;5058154;28;20091;-71
2023/06/29 06:44:32;;;;;;;21.63;17.45;;;;;;;21.79;64.92;101350.16;5052150;28;20029;-71
2023/06/29 06:46:57;;;;;;;28.17;19.40;;;;;;;21.73;63.89;101343.81;5051736;28;20025;-72
2023/06/29 06:49:23;;;;;;;22.70;18.10;;;;;;;21.78;64.02;101349.34;5059441;28;20113;-75
2023/06/29 06:51:49;;;;;;;24.55;18.80;;;;;;;21.79;63.42;101355.81;5063183;28;20029;-75
2023/06/29 06:54:14;;;;;;;21.95;17.00;;;;;;;21.89;64.02;101355.59;5088973;28;20074;-71
2023/06/29 06:56:40;;;;;;;23.27;18.60;;;;;;;21.94;63.67;101355.47;5082225;28;20032;-71
2023/06/29 06:59:07;;;;;;;21.75;17.95;;;;;;;22.01;63.10;101343.75;5092244;28;20039;-70
2023/06/29 07:01:32;;;;;;;23.02;18.80;;;;;;;22.02;62.03;101351.06;5077610;28;20824;-72
2023/06/29 07:03:57;;;;;;;23.67;17.88;;;;;;;22.13;62.05;101349.72;5065214;28;20154;-71
2023/06/29 07:06:23;;;;;;;25.05;17.25;;;;;;;22.25;61.52;101341.50;5069086;28;20447;-72
2023/06/29 07:08:48;;;;;;;23.83;17.67;;;;;;;22.30;61.65;101344.19;5069859;28;20036;-71
2023/06/29 07:11:14;;;;;;;22.88;18.60;;;;;;;22.31;61.07;101342.19;5077866;28;20031;-71
2023/06/29 07:13:39;;;;;;;29.08;19.65;;;;;;;22.34;60.63;101341.56;5073822;28;20518;-71
2023/06/29 07:16:06;;;;;;;29.20;20.98;;;;;;;22.39;60.08;101349.91;5072091;28;20028;-71
2023/06/29 07:18:34;;;;;;;25.10;18.75;;;;;;;22.44;59.36;101348.94;5070809;28;20399;-71
2023/06/29 07:20:59;;;;;;;24.13;18.00;;;;;;;22.51;60.93;101344.50;5070271;28;20475;-70
2023/06/29 07:23:25;;;;;;;27.38;19.90;;;;;;;22.46;58.73;101347.47;5058260;28;20039;-71
2023/06/29 07:25:50;;;;;;;23.23;17.08;;;;;;;22.57;59.77;101344.38;5057037;28;20065;-71
2023/06/29 07:28:16;;;;;;;24.65;18.45;;;;;;;22.59;59.96;101342.06;5070148;28;20069;-70
2023/06/29 07:30:41;;;;;;;28.00;21.20;;;;;;;22.53;58.30;101345.03;5086698;28;20024;-75
2023/06/29 07:33:07;;;;;;;26.42;20.05;;;;;;;22.59;58.52;101339.22;5090591;28;20051;-67
2023/06/29 07:35:32;;;;;;;26.42;18.67;;;;;;;22.60;58.66;101335.22;5089873;28;20024;-75
2023/06/29 07:37:57;;;;;;;31.33;18.33;;;;;;;22.65;60.75;101341.59;5091287;28;20054;-74
2023/06/29 07:40:23;;;;;;;23.90;17.67;;;;;;;22.66;60.34;101336.78;5080927;28;20115;-73
2023/06/29 07:42:49;;;;;;;26.05;19.10;;;;;;;22.62;58.25;101339.41;5072214;28;20024;-74
2023/06/29 07:45:14;;;;;;;26.00;19.70;;;;;;;22.65;58.92;101337.94;5084735;28;20012;-66
2023/06/29 07:47:41;;;;;;;24.65;18.52;;;;;;;22.67;57.69;101336.44;5068366;28;20112;-74
2023/06/29 07:50:06;;;;;;;24.30;17.85;;;;;;;22.73;58.59;101335.16;5072291;28;20048;-75
2023/06/29 07:52:32;;;;;;;27.15;20.50;;;;;;;22.75;57.42;101335.69;5080352;28;20028;-75
2023/06/29 07:54:57;;;;;;;25.23;20.13;;;;;;;22.78;57.54;101342.69;5091018;28;20066;-71
2023/06/29 07:57:22;;;;;;;25.33;19.42;;;;;;;22.82;57.72;101331.56;5083984;28;20425;-75
2023/06/29 07:59:47;;;;;;;24.88;20.50;;;;;;;22.79;56.91;101339.53;5070244;28;20468;-76
2023/06/29 08:02:13;;;;;;;30.05;21.38;;;;;;;22.77;57.48;101326.88;5080639;28;20034;-76
2023/06/29 08:04:38;;;;;;;29.17;20.52;;;;;;;22.80;56.73;101326.22;5069059;28;20024;-76
2023/06/29 08:07:04;;;;;;;23.98;18.35;;;;;;;22.81;58.52;101332.72;5050089;28;20028;-76
2023/06/29 08:09:29;;;;;;;26.48;19.88;;;;;;;22.79;57.32;101330.19;5062598;28;20071;-76
2023/06/29 08:11:54;;;;;;;26.27;19.55;;;;;;;22.78;57.56;101329.34;5071472;28;20039;-76
2023/06/29 08:14:20;;;;;;;24.40;18.63;;;;;;;22.78;57.94;101320.88;5089484;28;20544;-76
2023/06/29 08:16:45;;;;;;;24.02;19.38;;;;;;;22.79;57.75;101318.88;5090861;28;20357;-76
2023/06/29 08:19:10;;;;;;;24.80;19.25;;;;;;;22.79;58.02;101318.88;5090047;28;20111;-76
2023/06/29 08:21:36;;;;;;;24.67;19.65;;;;;;;22.84;57.21;101320.75;5069657;28;20059;-76
2023/06/29 08:24:01;;;;;;;29.50;20.95;;;;;;;22.82;56.68;101321.06;5050875;28;20176;-76
2023/06/29 08:26:26;;;;;;;28.90;20.75;;;;;;;22.86;56.53;101324.06;5050174;28;20036;-76
2023/06/29 08:28:52;;;;;;;28.17;21.00;;;;;;;22.87;56.35;101326.59;5049596;28;20124;-76
2023/06/29 08:31:19;;;;;;;38.15;23.02;;;;;;;22.84;55.38;101326.41;5050597;28;20036;-75
2023/06/29 08:33:45;;;;;;;29.58;22.08;;;;;;;22.85;56.64;101333.72;5049361;28;20064;-76
2023/06/29 08:36:11;;;;;;;31.23;23.05;;;;;;;22.83;56.13;101333.22;5058588;28;20055;-75
2023/06/29 08:38:36;;;;;;;31.33;22.38;;;;;;;22.77;56.18;101336.19;5065695;28;20029;-75
2023/06/29 08:41:04;;;;;;;24.42;20.17;;;;;;;22.82;56.65;101317.41;5070526;28;20036;-76
2023/06/29 08:43:30;;;;;;;28.52;22.10;;;;;;;22.83;56.90;101325.56;5069242;28;20021;-75
2023/06/29 08:45:55;;;;;;;28.67;22.52;;;;;;;22.84;55.92;101321.59;5077528;28;20028;-76
2023/06/29 08:48:22;;;;;;;26.17;19.83;;;;;;;22.92;56.66;101323.66;5061858;28;20056;-76
2023/06/29 08:50:59;;;;;;;27.63;21.67;;;;;;;23.00;56.63;101322.03;5074168;28;20043;-76
2023/06/29 08:53:26;;;;;;;27.80;21.48;;;;;;;23.09;55.89;101328.56;5090100;28;20032;-75
2023/06/29 08:55:52;;;;;;;24.70;19.67;;;;;;;23.19;55.95;101322.63;5089863;28;20064;-76
2023/06/29 08:58:21;;;;;;;27.85;20.80;;;;;;;23.23;55.69;101312.31;5091209;28;20437;-76
2023/06/29 09:00:47;;;;;;;29.88;22.23;;;;;;;23.27;54.24;101313.31;5084370;28;20028;-76
2023/06/29 09:03:14;;;;;;;27.92;21.02;;;;;;;23.34;54.19;101314.81;5090519;28;20032;-76
2023/06/29 09:05:39;;;;;;;28.10;21.15;;;;;;;23.39;53.79;101306.19;5077643;28;20024;-75
2023/06/29 09:08:04;;;;;;;29.70;21.60;;;;;;;23.47;53.52;101317.53;5072829;28;20081;-75
2023/06/29 09:10:30;;;;;;;32.05;21.65;;;;;;;23.47;53.31;101313.88;5070185;28;20029;-76
2023/06/29 09:12:56;;;;;;;27.08;21.23;;;;;;;23.46;52.91;101315.88;5073504;28;20032;-75
2023/06/29 09:15:25;;;;;;;28.75;21.65;;;;;;;23.46;52.92;101312.19;5073363;28;20056;-75
2023/06/29 09:17:54;;;;;;;27.83;20.75;;;;;;;23.40;52.86;101313.50;5072569;28;20056;-76
2023/06/29 09:20:20;;;;;;;28.10;21.80;;;;;;;23.36;53.23;101315.34;5073749;28;20028;-76
2023/06/29 09:22:51;;;;;;;30.30;22.02;;;;;;;23.37;53.42;101314.16;5061869;28;20079;-75
2023/06/29 09:25:16;;;;;;;26.75;20.95;;;;;;;23.37;53.55;101315.00;5072633;28;20048;-76
2023/06/29 09:27:42;;;;;;;28.85;21.60;;;;;;;23.36;53.53;101306.84;5073311;28;20410;-76
2023/06/29 09:30:08;;;;;;;26.30;21.20;;;;;;;23.36;53.61;101304.84;5084069;28;20035;-76
2023/06/29 09:32:38;;;;;;;27.42;21.30;;;;;;;23.35;53.65;101310.84;5092645;28;20426;-76
2023/06/29 09:35:08;;;;;;;28.17;21.50;;;;;;;23.31;54.15;101307.81;5093541;28;20042;-75
2023/06/29 09:37:33;;;;;;;29.15;21.75;;;;;;;23.32;53.60;101311.50;5092528;28;20077;-75
2023/06/29 09:39:59;;;;;;;27.02;21.77;;;;;;;23.34;53.81;101306.31;5074208;28;20028;-76
2023/06/29 09:42:28;;;;;;;28.15;22.33;;;;;;;23.29;53.59;101310.13;5072625;28;20498;-76
2023/06/29 09:44:54;;;;;;;29.20;22.60;;;;;;;23.27;53.34;101310.47;5087025;28;20480;-75
2023/06/29 09:47:19;;;;;;;30.42;22.52;;;;;;;23.28;53.94;101312.13;5093318;28;20026;-75
2023/06/29 09:49:47;;;;;;;30.50;22.17;;;;;;;23.30;54.21;101322.28;5092996;28;20028;-76
2023/06/29 09:52:13;;;;;;;30.13;22.02;;;;;;;23.31;53.87;101315.50;5092343;28;20035;-76
2023/06/29 09:54:39;;;;;;;29.20;23.08;;;;;;;23.30;53.89;101308.13;5092888;28;20053;-75
2023/06/29 09:57:04;;;;;;;27.15;22.20;;;;;;;23.34;54.04;101306.31;5072531;28;20119;-75
2023/06/29 09:59:40;;;;;;;32.00;23.63;;;;;;;23.34;53.97;101312.81;5070152;28;20060;-76
2023/06/29 10:02:08;;;;;;;27.90;21.70;;;;;;;23.36;53.81;101316.16;5073034;28;20040;-76
2023/06/29 10:04:35;;;;;;;31.65;23.25;;;;;;;23.36;53.85;101316.16;5072144;28;20032;-76
2023/06/29 10:07:08;;;;;;;30.33;23.67;;;;;;;23.38;53.93;101318.66;5070538;28;20055;-76
2023/06/29 10:09:38;;;;;;;29.20;22.60;;;;;;;23.38;53.42;101313.00;5067996;28;20032;-76
2023/06/29 10:12:06;;;;;;;33.08;23.48;;;;;;;23.40;53.18;101311.50;5079364;28;20025;-75
2023/06/29 10:14:33;;;;;;;30.85;21.67;;;;;;;23.40;53.56;101319.19;5051004;28;20045;-75
2023/06/29 10:17:01;;;;;;;29.60;22.75;;;;;;;23.41;53.67;101307.50;5050825;28;20047;-78
2023/06/29 10:19:29;;;;;;;31.10;23.02;;;;;;;23.43;53.36;101312.84;5049624;28;20139;-77
2023/06/29 10:22:05;;;;;;;30.80;22.95;;;;;;;23.44;54.19;101315.34;5051501;28;20566;-75
2023/06/29 10:24:45;;;;;;;29.65;21.98;;;;;;;23.45;54.17;101314.19;5081600;28;20031;-76
2023/06/29 10:27:13;;;;;;;33.28;25.08;;;;;;;23.43;54.06;101310.03;5075218;28;20710;-78
2023/06/29 10:29:46;;;;;;;29.67;22.67;;;;;;;23.46;53.91;101313.03;5088928;28;20012;-76
2023/06/29 10:32:33;;;;;;;33.63;24.98;;;;;;;23.43;53.43;101313.69;5080336;28;20047;-79
2023/06/29 10:35:02;;;;;;;35.67;26.23;;;;;;;23.35;52.77;101316.50;5092062;28;20024;-71
2023/06/29 10:37:32;;;;;;;30.33;24.13;;;;;;;23.40;53.53;101319.19;5070792;28;20081;-77
2023/06/29 10:39:58;;;;;;;32.35;23.67;;;;;;;23.41;53.37;101313.16;5058528;28;20087;-76
2023/06/29 10:42:23;;;;;;;28.33;22.95;;;;;;;23.41;52.73;101315.19;5065551;28;20539;-76
2023/06/29 10:44:49;;;;;;;34.95;24.83;;;;;;;23.41;52.87;101306.69;5093398;28;20032;-75
2023/06/29 10:47:27;;;;;;;31.45;23.98;;;;;;;23.42;53.63;101309.19;5060199;28;20423;-78
2023/06/29 10:50:08;;;;;;;32.10;24.35;;;;;;;23.41;53.37;101309.50;5061770;28;20028;-78
2023/06/29 10:52:33;;;;;;;32.13;23.70;;;;;;;23.41;52.97;101304.66;5052696;28;20024;-78
2023/06/29 10:55:15;;;;;;;32.13;24.23;;;;;;;23.44;53.78;101314.53;5065897;28;20032;-78
2023/06/29 10:57:47;;;;;;;35.40;25.52;;;;;;;23.42;53.71;101308.34;5065638;28;20021;-78
2023/06/29 11:00:14;;;;;;;35.08;25.08;;;;;;;23.38;53.34;101307.31;5070335;28;20051;-77
2023/06/29 11:02:40;;;;;;;35.00;25.58;;;;;;;23.40;53.82;101305.00;5069477;28;20032;-77
2023/06/29 11:05:06;;;;;;;30.30;22.80;;;;;;;23.43;54.39;101307.19;5060394;28;20665;-79